Flight Track Log - Related Links

Times and Time Zones

All times are in EDT time to prevent confusion due to time zone crossing. See the ASQ6151 flight status page for this flight to view local times or setup timezone preferences in your user account.

Time Position Orientation Groundspeed Altitude Reporting Facility
EDT Latitude Longitude Course Direction KTS MPH feet Rate Location/Type
Thu 12:54:41 PM 46.8894 -96.8158 121° Southeast 166 191 2,200  Level Minneapolis Center
Thu 12:55:43 PM 46.8458 -96.7706 145° Southeast 189 217 4,600 2,274 Climbing Minneapolis Center
Thu 12:56:45 PM 46.8381 -96.6736 97° East 234 269 6,900 2,496 Climbing Minneapolis Center
Thu 12:57:00 PM 46.6708 -96.6749 126° Southeast  Level FlightAware Approximate
Thu 12:57:48 PM 46.8364 -96.5558 91° East 275 316 9,800  Level Minneapolis Center
Thu 12:58:00 PM 46.6240 -96.5814 126° Southeast  Level FlightAware Approximate
Thu 12:58:50 PM 46.8383 -96.4236 89° East 315 362 11,100  Level Minneapolis Center
Thu 12:59:00 PM 46.5820 -96.4833 121° Southeast  Level FlightAware Approximate
Thu 12:59:52 PM 46.8150 -96.2833 104° East 347 399 12,700  Level Minneapolis Center
Thu 01:00:54 PM 46.7736 -96.1467 114° Southeast 353 406 14,600 1,694 Climbing Minneapolis Center
Thu 01:01:56 PM 46.7333 -96.0169 114° Southeast 363 418 16,200 1,452 Climbing Minneapolis Center
Thu 01:02:58 PM 46.6839 -95.8786 117° Southeast 370 426 17,600 1,597 Climbing Minneapolis Center
Thu 01:04:00 PM 46.6258 -95.7800 131° Southeast 364 419 19,500 1,887 Climbing Minneapolis Center
Thu 01:05:02 PM 46.5461 -95.6458 131° Southeast 366 421 21,500 1,694 Climbing Minneapolis Center
Thu 01:06:04 PM 46.4808 -95.5353 131° Southeast 363 418 23,000 1,500 Climbing Minneapolis Center
Thu 01:07:06 PM 46.4111 -95.4194 131° Southeast 360 414 24,600 1,500 Climbing Minneapolis Center
Thu 01:08:08 PM 46.3453 -95.3092 131° Southeast 361 415 26,100 1,452 Climbing Minneapolis Center
Thu 01:09:10 PM 46.2803 -95.2006 131° Southeast 360 414 27,600 1,694 Climbing Minneapolis Center
Thu 01:10:12 PM 46.2158 -95.0925 131° Southeast 358 412 29,600 1,694 Climbing Minneapolis Center
Thu 01:11:14 PM 46.1469 -94.9797 131° Southeast 350 403 31,100 1,403 Climbing Minneapolis Center
Thu 01:12:16 PM 46.0833 -94.8750 131° Southeast 348 400 32,500 1,296 Climbing Minneapolis Center
Thu 01:13:19 PM 46.0189 -94.7697 131° Southeast 351 404 33,800 1,200 Climbing Minneapolis Center
Thu 01:14:21 PM 45.9428 -94.6442 131° Southeast 349 402 35,000 581 Climbing Minneapolis Center
Thu 01:15:23 PM 45.8764 -94.5367 132° Southeast 356 410 35,000  Level Minneapolis Center
Thu 01:16:25 PM 45.8033 -94.4194 132° Southeast 382 440 35,000  Level Minneapolis Center
Thu 01:17:27 PM 45.7286 -94.2947 131° Southeast 404 465 35,000  Level Minneapolis Center
Thu 01:18:29 PM 45.6628 -94.1556 124° Southeast 421 484 35,000  Level Minneapolis Center
Thu 01:19:31 PM 45.5958 -94.0164 124° Southeast 425 489 35,000  Level Minneapolis Center
Thu 01:20:33 PM 45.5156 -93.8503 125° Southeast 425 489 35,000  Level Minneapolis Center
Thu 01:21:35 PM 45.4472 -93.7111 125° Southeast 430 495 35,000  Level Minneapolis Center
Thu 01:22:37 PM 45.3803 -93.5725 124° Southeast 428 493 35,000  Level Minneapolis Center
Thu 01:23:39 PM 45.3122 -93.4336 125° Southeast 429 494 35,000  Level Minneapolis Center
Thu 01:24:41 PM 45.2439 -93.2964 125° Southeast 426 490 35,000  Level Minneapolis Center
Thu 01:25:43 PM 45.1758 -93.1586 125° Southeast 425 489 35,000  Level Minneapolis Center
Thu 01:26:45 PM 45.0931 -92.9939 125° Southeast 426 490 35,000  Level Minneapolis Center
Thu 01:27:47 PM 45.0258 -92.8572 125° Southeast 422 486 35,000  Level Minneapolis Center
Thu 01:28:49 PM 44.9586 -92.7247 126° Southeast 415 478 35,000  Level Minneapolis Center
Thu 01:29:52 PM 44.8914 -92.5922 126° Southeast 414 476 35,000  Level Minneapolis Center
Thu 01:30:54 PM 44.8219 -92.4567 126° Southeast 422 486 35,000  Level Minneapolis Center
Thu 01:31:56 PM 44.7528 -92.3228 126° Southeast 423 487 35,000  Level Minneapolis Center
Thu 01:32:58 PM 44.6842 -92.1867 125° Southeast 425 489 35,000  Level Minneapolis Center
Thu 01:34:00 PM 44.6000 -92.0247 126° Southeast 427 491 35,000  Level Minneapolis Center
Thu 01:35:02 PM 44.5014 -91.9322 146° Southeast 424 488 35,000  Level Minneapolis Center
Thu 01:36:04 PM 44.4011 -91.8456 148° Southeast 426 490 35,000 -242 Level Minneapolis Center
Thu 01:37:06 PM 44.3014 -91.7575 148° Southeast 425 489 34,500 -968 Descending Minneapolis Center
Thu 01:38:08 PM 44.2306 -91.6214 126° Southeast 441 507 33,000 -1,355 Descending Minneapolis Center
Thu 01:39:10 PM 44.1644 -91.4781 123° Southeast 440 506 31,700 -968 Descending Minneapolis Center
Thu 01:40:12 PM 44.0825 -91.3028 123° Southeast 449 517 31,000 -339 Descending Minneapolis Center
Thu 01:41:14 PM 44.0172 -91.1603 122° Southeast 453 521 31,000  Level Minneapolis Center
Thu 01:42:16 PM 43.9497 -91.0133 123° Southeast 452 520 31,000  Level Minneapolis Center
Thu 01:43:18 PM 43.8833 -90.8703 123° Southeast 448 516 31,000 -514 Level Minneapolis Center
Thu 01:44:01 PM 43.8306 -90.7606 124° Southeast 436 502 30,100 -1,886 Descending Chicago Center
Thu 01:45:03 PM 43.7639 -90.6203 123° Southeast 436 502 27,700 -2,519 Descending Chicago Center
Thu 01:45:22 PM 43.7375 -90.5625 122° Southeast 439 505 26,700 -2,370 Descending Minneapolis Center
Thu 01:46:24 PM 43.6708 -90.4217 123° Southeast 440 506 24,500 -1,317 Descending Minneapolis Center
Thu 01:47:25 PM 43.6586 -90.2581 96° East 439 505 24,000 -244 Descending Minneapolis Center
Thu 01:48:27 PM 43.6619 -90.0986 88° East 429 494 24,000  Level Minneapolis Center
Thu 01:49:12 PM 43.6181 -89.9739 116° Southeast 433 498 24,000 -393 Level Chicago Center
Thu 01:50:14 PM 43.5386 -89.8531 132° Southeast 424 488 23,300 -774 Descending Chicago Center
Thu 01:51:16 PM 43.4453 -89.7644 145° Southeast 410 472 22,400 -1,113 Descending Chicago Center
Thu 01:52:18 PM 43.3458 -89.6775 148° Southeast 420 483 21,000 -1,452 Descending Chicago Center
Thu 01:53:20 PM 43.2367 -89.5819 147° Southeast 403 464 19,400 -1,548 Descending Chicago Center
Thu 01:54:22 PM 43.1461 -89.5022 147° Southeast 390 449 17,800 -1,694 Descending Chicago Center
Thu 01:55:24 PM 43.0581 -89.4261 148° Southeast 379 436 15,900 -1,790 Descending Chicago Center
Thu 01:56:26 PM 42.9742 -89.3528 147° Southeast 363 418 14,100 -1,452 Descending Chicago Center
Thu 01:57:28 PM 42.8922 -89.2394 135° Southeast 361 415 12,900 -581 Descending Chicago Center
Thu 01:58:30 PM 42.8231 -89.1381 133° Southeast 365 420 12,900  Level Chicago Center
Thu 01:59:32 PM 42.7547 -89.0400 133° Southeast 361 415 12,900  Level Chicago Center
Thu 02:00:34 PM 42.6828 -88.9378 134° Southeast 371 427 12,900  Level Chicago Center
Thu 02:01:36 PM 42.6111 -88.8353 134° Southeast 374 430 12,900 -629 Level Chicago Center
Thu 02:02:38 PM 42.5431 -88.7364 133° Southeast 360 414 11,600 -1,355 Descending Chicago Center
Thu 02:03:40 PM 42.4725 -88.6378 134° Southeast 318 366 10,100 -1,258 Descending Chicago Center
Thu 02:04:42 PM 42.4225 -88.5656 133° Southeast 275 316 9,000 -581 Descending Chicago Center
Thu 02:05:44 PM 42.3697 -88.4897 133° Southeast 275 316 8,900  Descending Chicago Center
Thu 02:06:46 PM 42.3417 -88.3900 111° Southeast 288 331 9,000 -439 Climbing Chicago Center
Thu 02:07:47 PM 42.3125 -88.2894 111° Southeast 284 327 8,000 -878 Descending Chicago Center
Thu 02:08:49 PM 42.2611 -88.2447 147° Southeast 226 260 7,200 -629 Descending Chicago Center
Thu 02:09:51 PM 42.2083 -88.1786 137° Southeast 220 253 6,700 -919 Descending Chicago Center
Thu 02:10:53 PM 42.1619 -88.1286 141° Southeast 217 250 5,300 -1,210 Descending Chicago Center
Thu 02:11:55 PM 42.1178 -88.0767 139° Southeast 214 246 4,200 -1,169 Descending Chicago Center
Thu 02:12:10 PM 42.1000 -88.0667 157° South 200 230 3,800 -1,600 Descending Chicago TRACON

Login

Don't have an account? Register now (free) for customized features, flight alerts, and more!